Time;durP1;ratioP1;P1;durP2;ratioP2;P2;SDS_P1;SDS_P2;PMS_P1;PMS_P2;Temp;Humidity;BMP_temperature;BMP_pressure;BME280_temperature;BME280_humidity;BME280_pressure;Samples;Min_cycle;Max_cycle;Signal;HPM_P1;HPM_P2
2022/01/27 00:03:28;;;;;;;17.38;6.32;;;;;;;-1.29;63.08;99880.00;4988151;28;20045;-79
2022/01/27 00:05:58;;;;;;;12.65;6.68;;;;;;;-1.38;63.42;99875.38;5011255;28;20455;-76
2022/01/27 00:08:29;;;;;;;11.77;5.80;;;;;;;-1.54;63.62;99861.13;4996998;28;20049;-77
2022/01/27 00:11:01;;;;;;;11.13;5.50;;;;;;;-1.49;63.28;99880.06;4998468;28;20049;-76
2022/01/27 00:13:31;;;;;;;11.13;5.97;;;;;;;-1.42;63.66;99894.81;5017602;28;20073;-76
2022/01/27 00:16:10;;;;;;;10.93;5.78;;;;;;;-1.37;63.35;99889.91;4998236;28;20101;-77
2022/01/27 00:18:37;;;;;;;10.43;5.25;;;;;;;-1.46;62.72;99882.75;4996958;28;20041;-79
2022/01/27 00:21:03;;;;;;;11.10;5.63;;;;;;;-1.54;63.50;99874.78;5014698;28;20049;-76
2022/01/27 00:23:30;;;;;;;11.43;5.88;;;;;;;-1.45;63.54;99892.16;4981498;28;20045;-78
2022/01/27 00:25:56;;;;;;;13.18;6.53;;;;;;;-1.52;63.54;99885.03;5014220;28;20057;-77
2022/01/27 00:28:21;;;;;;;10.23;5.40;;;;;;;-1.56;63.27;99870.44;4997167;28;20129;-75
2022/01/27 00:30:47;;;;;;;11.57;5.30;;;;;;;-1.57;63.45;99877.19;4964171;28;20038;-79
2022/01/27 00:33:13;;;;;;;13.98;5.78;;;;;;;-1.63;63.57;99876.94;4980452;28;20416;-77
2022/01/27 00:35:38;;;;;;;13.27;6.03;;;;;;;-1.63;63.30;99881.19;4979769;28;20110;-77
2022/01/27 00:38:04;;;;;;;13.00;5.82;;;;;;;-1.67;62.99;99901.47;4996100;28;20049;-77
2022/01/27 00:40:30;;;;;;;11.68;5.97;;;;;;;-1.88;62.51;99880.13;4996531;28;20037;-80
2022/01/27 00:42:56;;;;;;;11.23;5.20;;;;;;;-1.88;63.17;99887.78;4997098;28;20042;-77
2022/01/27 00:45:24;;;;;;;8.18;5.10;;;;;;;-1.98;63.23;99882.28;4980276;28;20038;-78
2022/01/27 00:47:50;;;;;;;10.80;5.60;;;;;;;-2.13;63.07;99868.88;4980504;28;20073;-77
2022/01/27 00:50:18;;;;;;;12.32;5.95;;;;;;;-1.95;63.56;99899.41;5014298;28;20139;-78
2022/01/27 00:52:52;;;;;;;10.40;6.35;;;;;;;-2.06;63.28;99895.53;5013035;28;20037;-79
2022/01/27 00:55:20;;;;;;;9.77;5.45;;;;;;;-2.18;63.52;99878.88;5013841;28;20041;-78
2022/01/27 01:00:34;;;;;;;10.05;5.40;;;;;;;-2.20;63.57;99903.44;5013797;28;20041;-77
2022/01/27 01:03:15;;;;;;;12.98;4.88;;;;;;;-2.40;63.61;99861.75;4996470;28;20045;-77
2022/01/27 01:09:15;;;;;;;7.03;4.40;;;;;;;-2.16;63.91;99879.84;4979660;28;20041;-79
2022/01/27 01:16:47;;;;;;;7.80;4.15;;;;;;;-2.39;63.25;99839.72;4995424;28;20143;-77
2022/01/27 01:32:46;;;;;;;8.63;4.80;;;;;;;-2.59;63.16;99868.59;4999502;28;20060;-76
2022/01/27 01:35:12;;;;;;;8.07;4.90;;;;;;;-2.60;63.29;99868.53;4998420;28;20050;-76
2022/01/27 01:37:41;;;;;;;6.53;4.25;;;;;;;-2.45;63.26;99879.41;4978815;28;20084;-76
2022/01/27 01:40:13;;;;;;;7.65;4.57;;;;;;;-2.67;63.29;99848.66;4995825;28;20051;-78
2022/01/27 01:42:39;;;;;;;12.18;4.40;;;;;;;-2.59;63.58;99847.34;4978557;28;20033;-77
2022/01/27 01:45:08;;;;;;;7.47;3.70;;;;;;;-2.37;62.72;99878.88;4994945;28;20092;-77
2022/01/27 01:47:34;;;;;;;6.57;3.78;;;;;;;-2.53;61.72;99865.44;4978821;28;20041;-78
2022/01/27 01:50:00;;;;;;;6.35;3.95;;;;;;;-2.40;63.37;99881.28;5012648;28;20158;-76
2022/01/27 01:52:26;;;;;;;6.95;4.00;;;;;;;-2.48;63.26;99856.31;4962685;28;20583;-77
2022/01/27 01:54:54;;;;;;;5.38;3.33;;;;;;;-2.33;63.05;99880.78;5012573;28;20128;-77
2022/01/27 01:57:21;;;;;;;7.22;4.40;;;;;;;-2.33;62.68;99881.63;4994819;28;20144;-77
2022/01/27 01:59:47;;;;;;;6.35;3.72;;;;;;;-2.40;62.68;99869.41;5012073;28;20045;-76
2022/01/27 02:02:13;;;;;;;6.50;3.70;;;;;;;-2.33;62.77;99873.97;5012007;28;20417;-75
2022/01/27 02:04:41;;;;;;;6.53;4.20;;;;;;;-2.39;62.73;99855.00;5012002;28;20519;-76
2022/01/27 02:07:17;;;;;;;7.63;3.90;;;;;;;-2.32;62.47;99860.44;4994778;28;20041;-78
2022/01/27 02:18:00;;;;;;;8.77;4.88;;;;;;;-2.34;63.12;99877.34;4994806;28;20100;-77
2022/01/27 02:20:26;;;;;;;8.98;4.20;;;;;;;-2.45;62.24;99876.00;4978419;28;20109;-77
2022/01/27 02:22:52;;;;;;;6.85;4.47;;;;;;;-2.52;62.66;99862.09;5012044;28;20049;-76
2022/01/27 02:25:18;;;;;;;9.18;3.92;;;;;;;-2.55;62.17;99871.28;5011029;28;20049;-78
2022/01/27 02:27:44;;;;;;;7.85;4.47;;;;;;;-2.69;62.07;99856.25;4994141;28;20121;-79
2022/01/27 02:30:10;;;;;;;9.48;4.22;;;;;;;-2.69;62.19;99885.94;5011331;28;20100;-76
2022/01/27 02:32:36;;;;;;;9.60;4.53;;;;;;;-2.85;62.46;99853.78;4978758;28;20042;-76
2022/01/27 02:35:04;;;;;;;8.30;4.25;;;;;;;-2.81;62.76;99858.22;4978004;28;20501;-77
2022/01/27 02:37:32;;;;;;;8.35;4.85;;;;;;;-2.60;62.44;99879.59;4979086;28;20101;-78
2022/01/27 02:39:58;;;;;;;9.90;4.95;;;;;;;-2.64;62.70;99857.31;5011509;28;20037;-76
2022/01/27 02:42:33;;;;;;;8.73;4.75;;;;;;;-2.46;62.57;99872.56;5011566;28;20088;-76
2022/01/27 02:45:11;;;;;;;8.60;4.63;;;;;;;-2.50;62.22;99878.31;4961069;28;20034;-76
2022/01/27 02:47:37;;;;;;;6.47;3.60;;;;;;;-2.55;62.57;99874.72;4961617;28;20041;-78
2022/01/27 02:50:05;;;;;;;7.43;4.22;;;;;;;-2.70;62.94;99849.41;5011326;28;20033;-78
2022/01/27 02:52:31;;;;;;;10.13;4.57;;;;;;;-2.59;62.80;99868.59;4977946;28;20549;-77
2022/01/27 02:54:57;;;;;;;7.63;4.15;;;;;;;-2.73;62.27;99839.06;4977687;28;20104;-76
2022/01/27 02:57:24;;;;;;;12.60;4.60;;;;;;;-2.49;62.49;99874.97;5011879;28;20469;-76
2022/01/27 02:59:50;;;;;;;11.63;4.72;;;;;;;-2.54;62.13;99871.38;5011507;28;20462;-78
2022/01/27 03:02:16;;;;;;;9.27;4.53;;;;;;;-2.51;62.46;99870.63;5012022;28;20463;-80
2022/01/27 03:04:42;;;;;;;13.60;5.25;;;;;;;-2.49;62.36;99881.75;4994505;28;20037;-78
2022/01/27 03:07:08;;;;;;;8.70;4.88;;;;;;;-2.59;62.33;99862.63;5009764;28;20042;-79
2022/01/27 03:09:35;;;;;;;10.60;5.35;;;;;;;-2.55;62.34;99868.72;4993572;28;20440;-76
2022/01/27 03:12:06;;;;;;;12.05;5.63;;;;;;;-2.70;62.05;99841.78;4993217;28;20050;-78
2022/01/27 03:14:33;;;;;;;11.85;5.60;;;;;;;-2.58;62.21;99870.34;5011636;28;20417;-76
2022/01/27 03:17:01;;;;;;;8.82;5.45;;;;;;;-2.69;62.18;99850.28;4993568;28;20042;-78
2022/01/27 03:19:27;;;;;;;12.55;5.93;;;;;;;-2.68;62.27;99857.13;5011273;28;20408;-78
2022/01/27 03:21:54;;;;;;;11.27;5.93;;;;;;;-2.75;62.49;99858.50;4977050;28;20037;-76
2022/01/27 03:24:21;;;;;;;11.93;6.32;;;;;;;-2.65;62.33;99868.34;5011262;28;20046;-76
2022/01/27 03:26:48;;;;;;;11.95;6.30;;;;;;;-2.64;62.46;99875.16;5010779;28;20053;-80
2022/01/27 03:29:16;;;;;;;10.88;5.82;;;;;;;-2.71;62.22;99868.03;5011191;28;20049;-77
2022/01/27 03:31:43;;;;;;;11.27;5.82;;;;;;;-2.84;62.08;99847.88;5011372;28;20105;-79
2022/01/27 03:34:09;;;;;;;8.73;5.82;;;;;;;-2.89;62.19;99837.50;5011300;28;20037;-78
2022/01/27 03:36:35;;;;;;;12.68;6.03;;;;;;;-2.77;62.39;99867.75;5010628;28;20037;-76
2022/01/27 03:39:00;;;;;;;11.32;5.85;;;;;;;-2.84;62.50;99861.50;5010973;28;20097;-79
2022/01/27 03:41:31;;;;;;;13.55;6.35;;;;;;;-2.92;62.83;99858.63;5009710;28;20088;-79
2022/01/27 03:43:58;;;;;;;9.67;5.40;;;;;;;-2.93;62.05;99858.53;4993952;28;20389;-79
2022/01/27 03:46:24;;;;;;;9.25;5.50;;;;;;;-3.11;62.25;99846.69;4993368;28;20041;-82
2022/01/27 03:48:50;;;;;;;10.52;5.50;;;;;;;-3.03;62.62;99865.75;4995752;28;20048;-79
2022/01/27 03:51:16;;;;;;;10.45;6.07;;;;;;;-3.04;62.64;99870.75;4998790;28;20038;-82
2022/01/27 03:53:42;;;;;;;9.57;5.57;;;;;;;-3.18;62.84;99853.19;4999775;28;20151;-80
2022/01/27 03:56:08;;;;;;;9.15;5.65;;;;;;;-3.22;62.38;99841.09;4994704;28;20066;-78
2022/01/27 03:58:34;;;;;;;11.32;5.10;;;;;;;-3.39;62.51;99814.84;4977597;28;20132;-78
2022/01/27 04:01:05;;;;;;;8.25;5.65;;;;;;;-3.05;62.57;99867.34;4992448;28;20665;-77
2022/01/27 04:03:34;;;;;;;8.63;5.93;;;;;;;-3.25;62.63;99840.09;4993344;28;20049;-79
2022/01/27 04:06:07;;;;;;;11.88;5.85;;;;;;;-3.10;62.67;99857.75;5011578;28;20119;-81
2022/01/27 04:08:37;;;;;;;9.07;4.65;;;;;;;-3.19;62.89;99842.91;5012548;28;20101;-79
2022/01/27 04:11:05;;;;;;;8.32;4.93;;;;;;;-3.24;62.85;99840.16;5010775;28;20176;-76
2022/01/27 04:13:31;;;;;;;8.68;4.97;;;;;;;-3.17;62.51;99856.56;4977379;28;20102;-79
2022/01/27 04:15:57;;;;;;;8.98;5.05;;;;;;;-3.27;62.60;99845.09;4992763;28;20048;-76
2022/01/27 04:18:23;;;;;;;10.55;5.55;;;;;;;-3.25;62.63;99840.09;4992877;28;20037;-76
2022/01/27 04:20:48;;;;;;;7.43;4.68;;;;;;;-3.20;62.64;99849.69;4994377;28;20046;-79
2022/01/27 04:23:14;;;;;;;12.32;5.75;;;;;;;-3.14;63.26;99845.69;5010995;28;20041;-77
2022/01/27 04:25:40;;;;;;;8.90;5.22;;;;;;;-3.12;63.11;99836.44;4992772;28;20156;-78
2022/01/27 04:28:10;;;;;;;8.70;5.57;;;;;;;-3.16;62.75;99827.78;4976823;28;20037;-78
2022/01/27 04:30:36;;;;;;;9.65;5.80;;;;;;;-3.20;62.56;99831.88;4976271;28;20040;-78
2022/01/27 04:33:04;;;;;;;12.30;5.57;;;;;;;-3.23;62.91;99841.03;5011424;28;20046;-80
2022/01/27 04:35:34;;;;;;;8.63;5.45;;;;;;;-3.32;62.89;99823.66;4976396;28;20061;-78
2022/01/27 04:40:46;;;;;;;10.57;5.32;;;;;;;-3.45;62.37;99814.56;4993107;28;20038;-78
2022/01/27 04:46:35;;;;;;;11.02;4.88;;;;;;;-3.43;62.64;99822.25;4993417;28;20041;-76
2022/01/27 04:48:52;;;;;;;11.38;5.72;;;;;;;-3.52;62.22;99823.56;5009616;28;20461;-77
2022/01/27 04:51:21;;;;;;;8.05;5.07;;;;;;;-3.44;62.80;99835.78;4992949;28;20045;-78
2022/01/27 04:56:21;;;;;;;10.38;5.43;;;;;;;-3.70;62.83;99799.78;5013915;28;20107;-79
2022/01/27 04:58:52;;;;;;;13.82;5.80;;;;;;;-3.44;63.25;99843.41;5012003;28;20169;-78
2022/01/27 05:01:21;;;;;;;11.35;5.63;;;;;;;-3.39;63.25;99841.97;4995880;28;20504;-79
2022/01/27 05:04:01;;;;;;;9.40;4.93;;;;;;;-3.43;62.97;99827.34;4963470;28;20125;-78
2022/01/27 05:06:27;;;;;;;9.93;5.05;;;;;;;-3.43;62.26;99837.53;5013994;28;20156;-79
2022/01/27 05:08:54;;;;;;;11.45;5.47;;;;;;;-3.43;62.68;99838.41;5014347;28;20042;-76
2022/01/27 05:11:35;;;;;;;13.88;5.75;;;;;;;-3.37;62.82;99832.75;4997950;28;20198;-86
2022/01/27 05:14:12;;;;;;;9.68;6.15;;;;;;;-3.35;62.67;99841.31;5015201;28;20184;-81
2022/01/27 05:16:38;;;;;;;11.15;5.55;;;;;;;-3.71;62.72;99783.66;4999099;28;20373;-80
2022/01/27 05:19:04;;;;;;;13.35;5.47;;;;;;;-3.29;62.82;99836.50;4999842;28;20041;-79
2022/01/27 05:21:33;;;;;;;11.63;5.07;;;;;;;-3.34;62.83;99833.75;4966867;28;20048;-80
2022/01/27 05:24:00;;;;;;;10.50;5.05;;;;;;;-3.48;62.41;99816.97;5015137;28;20037;-78
2022/01/27 05:26:26;;;;;;;11.02;5.70;;;;;;;-3.41;62.23;99831.69;5016373;28;20096;-79
2022/01/27 05:28:52;;;;;;;10.80;5.50;;;;;;;-3.45;62.62;99819.66;4981810;28;20535;-77
2022/01/27 05:31:18;;;;;;;11.55;5.63;;;;;;;-3.64;62.87;99795.84;4996980;28;20089;-78
2022/01/27 05:33:44;;;;;;;11.98;4.88;;;;;;;-3.55;62.80;99807.28;5014254;28;20432;-80
2022/01/27 05:36:12;;;;;;;12.10;5.60;;;;;;;-3.63;62.60;99799.28;4998017;28;20049;-81
2022/01/27 05:38:38;;;;;;;10.40;5.80;;;;;;;-3.61;62.46;99817.16;4997698;28;20050;-79
2022/01/27 05:41:05;;;;;;;10.05;5.38;;;;;;;-3.59;62.71;99818.09;5016138;28;20191;-83
2022/01/27 05:43:32;;;;;;;8.52;5.00;;;;;;;-3.82;62.76;99777.16;4999926;28;20061;-79
2022/01/27 05:45:58;;;;;;;9.32;5.18;;;;;;;-3.67;62.57;99793.19;4983933;28;20042;-80
2022/01/27 05:48:24;;;;;;;11.25;5.53;;;;;;;-3.42;62.52;99835.03;5000754;28;20080;-80
2022/01/27 05:51:13;;;;;;;;;;;;;;;;;;;;;
2022/01/27 05:54:20;;;;;;;9.18;4.70;;;;;;;-3.98;62.55;99727.25;5022017;28;20038;-79
2022/01/27 05:56:46;;;;;;;10.85;5.22;;;;;;;-3.44;62.57;99816.31;4999329;28;20092;-76
2022/01/27 05:59:11;;;;;;;8.70;5.00;;;;;;;-3.51;62.13;99806.63;4980932;28;20416;-79
2022/01/27 06:01:37;;;;;;;9.50;5.35;;;;;;;-3.35;62.42;99828.59;4997784;28;20042;-79
2022/01/27 06:04:03;;;;;;;8.30;4.65;;;;;;;-3.42;62.41;99835.03;4983096;28;20101;-78
2022/01/27 06:06:29;;;;;;;6.75;4.32;;;;;;;-3.87;61.76;99771.88;5013638;28;20141;-76
2022/01/27 06:08:55;;;;;;;10.52;5.25;;;;;;;-3.58;62.34;99835.13;4996781;28;20483;-80
2022/01/27 06:11:20;;;;;;;9.20;5.40;;;;;;;-3.73;62.19;99810.69;4982702;28;20061;-82
2022/01/27 06:13:48;;;;;;;8.43;4.78;;;;;;;-3.76;61.83;99819.84;4996618;28;20041;-76
2022/01/27 06:16:16;;;;;;;9.73;4.97;;;;;;;-3.81;62.30;99833.22;5000117;28;20093;-78
2022/01/27 06:18:42;;;;;;;10.90;5.30;;;;;;;-3.83;62.33;99831.38;4969645;28;20057;-78
2022/01/27 06:21:13;;;;;;;8.30;4.80;;;;;;;-3.99;62.22;99810.28;4971113;28;20030;-80
2022/01/27 06:23:39;;;;;;;9.73;5.38;;;;;;;-3.97;62.20;99816.31;5002348;28;20033;-79
2022/01/27 06:26:05;;;;;;;10.40;5.35;;;;;;;-3.97;62.77;99801.06;5000944;28;20116;-77
2022/01/27 06:28:34;;;;;;;8.23;5.53;;;;;;;-3.94;62.21;99813.03;4981735;28;20075;-79
2022/01/27 06:31:00;;;;;;;9.88;5.40;;;;;;;-3.84;61.95;99809.28;4979578;28;20045;-78
2022/01/27 06:33:29;;;;;;;12.48;5.85;;;;;;;-3.84;61.98;99821.97;4996548;28;20044;-78
2022/01/27 06:35:56;;;;;;;11.85;6.15;;;;;;;-3.80;62.13;99821.34;4996234;28;20073;-77
2022/01/27 06:38:22;;;;;;;13.43;6.45;;;;;;;-4.02;62.20;99773.66;4998619;28;20128;-82
2022/01/27 06:40:52;;;;;;;16.00;6.93;;;;;;;-3.85;61.36;99785.53;4996234;28;20049;-79
2022/01/27 06:43:18;;;;;;;15.32;7.55;;;;;;;-3.83;61.80;99786.47;5012342;28;20041;-78
2022/01/27 06:45:43;;;;;;;17.35;6.85;;;;;;;-3.65;61.86;99804.31;4979761;28;20111;-79
2022/01/27 06:48:12;;;;;;;26.58;9.07;;;;;;;-3.52;61.77;99812.53;4996773;28;20053;-79
2022/01/27 06:50:38;;;;;;;19.38;8.00;;;;;;;-3.42;61.96;99813.84;4980467;28;20049;-79
2022/01/27 06:53:05;;;;;;;19.08;8.15;;;;;;;-3.50;62.07;99783.78;5014536;28;20069;-79
2022/01/27 06:55:30;;;;;;;19.90;8.63;;;;;;;-3.31;61.55;99804.16;4997035;28;20140;-79
2022/01/27 06:57:56;;;;;;;21.98;7.57;;;;;;;-3.30;61.96;99788.09;4999014;28;20118;-79
2022/01/27 07:00:22;;;;;;;13.63;6.65;;;;;;;-3.07;61.63;99822.22;5015083;28;20612;-80
2022/01/27 07:02:48;;;;;;;11.98;5.93;;;;;;;-3.25;61.53;99791.72;5014319;28;20041;-80
2022/01/27 07:05:47;;;;;;;12.57;5.75;;;;;;;-3.10;61.71;99832.31;5015380;28;20046;-81
2022/01/27 07:08:12;;;;;;;12.88;5.75;;;;;;;-3.85;61.02;99703.25;4998645;28;20042;-82
2022/01/27 07:10:42;;;;;;;11.73;5.22;;;;;;;-3.20;61.32;99838.63;5018171;28;20072;-79
2022/01/27 07:13:08;;;;;;;11.90;5.97;;;;;;;-3.09;61.51;99823.88;5022787;28;20033;-76
2022/01/27 07:15:33;;;;;;;16.10;5.80;;;;;;;-3.08;61.23;99806.09;5023987;28;20033;-79
2022/01/27 07:18:03;;;;;;;12.35;5.40;;;;;;;-3.38;61.23;99754.66;5022785;28;20045;-79
2022/01/27 07:20:32;;;;;;;10.52;5.57;;;;;;;-3.95;61.28;99636.72;4998702;28;20072;-79
2022/01/27 07:23:09;;;;;;;9.05;4.18;;;;;;;-3.21;61.13;99747.78;5023713;28;20560;-78
2022/01/27 07:25:41;;;;;;;6.95;3.88;;;;;;;-2.90;61.46;99783.16;5002820;28;20057;-78
2022/01/27 07:28:10;;;;;;;6.90;4.15;;;;;;;-3.01;60.49;99753.78;5000565;28;20034;-79
2022/01/27 07:30:36;;;;;;;10.57;4.38;;;;;;;-2.51;60.85;99817.97;5009467;28;20110;-79
2022/01/27 07:33:09;;;;;;;7.35;4.43;;;;;;;-2.65;60.91;99768.06;5012030;28;20097;-79
2022/01/27 07:35:35;;;;;;;9.45;4.93;;;;;;;-2.29;61.03;99821.44;4985227;28;20460;-79
2022/01/27 07:38:06;;;;;;;7.40;4.38;;;;;;;-2.69;60.60;99751.78;4984684;28;20044;-81
2022/01/27 07:40:43;;;;;;;6.53;4.15;;;;;;;-3.52;60.06;99594.56;4995942;28;20038;-79
2022/01/27 07:43:26;;;;;;;8.25;4.43;;;;;;;-2.03;60.44;99827.69;4995324;28;20042;-78
2022/01/27 07:45:52;;;;;;;9.45;4.72;;;;;;;-1.92;60.17;99805.19;4994510;28;20034;-80
2022/01/27 07:48:18;;;;;;;11.63;4.78;;;;;;;-1.76;60.06;99800.69;4992597;28;20045;-78
2022/01/27 07:50:44;;;;;;;11.52;4.30;;;;;;;-1.24;60.21;99779.78;4991972;28;20034;-77
2022/01/27 07:53:10;;;;;;;7.97;4.53;;;;;;;0.67;61.49;99798.25;4994467;28;20133;-80
2022/01/27 07:55:36;;;;;;;7.57;4.40;;;;;;;3.14;61.20;99779.81;4993157;28;20133;-78
2022/01/27 07:58:14;;;;;;;8.82;4.38;;;;;;;5.09;60.45;99739.25;4993842;28;20042;-79
2022/01/27 08:00:49;;;;;;;6.68;3.83;;;;;;;7.37;57.33;99743.66;4977448;28;20665;-80
2022/01/27 08:03:15;;;;;;;;;;;;;;;8.97;55.70;99748.88;4996832;28;20045;-79
2022/01/27 08:05:41;;;;;;;6.38;3.38;;;;;;;9.32;51.56;99753.09;4976091;28;19921;-79
2022/01/27 08:08:07;;;;;;;5.75;3.15;;;;;;;7.59;50.68;99559.84;4992174;28;20361;-81
2022/01/27 08:10:38;;;;;;;6.25;2.38;;;;;;;7.02;49.16;99619.31;4976030;28;20125;-81
2022/01/27 08:13:05;;;;;;;3.60;2.30;;;;;;;6.57;48.00;99751.88;4992216;28;20034;-80
2022/01/27 08:15:34;;;;;;;3.85;1.98;;;;;;;5.20;49.04;99704.97;4991424;28;20046;-80
2022/01/27 08:18:06;;;;;;;3.65;2.15;;;;;;;3.89;47.52;99643.94;4993580;28;20141;-77
2022/01/27 08:20:37;;;;;;;2.95;2.20;;;;;;;3.48;48.33;99713.59;4975979;28;20496;-78
2022/01/27 08:23:05;;;;;;;4.25;2.10;;;;;;;2.83;48.93;99666.06;4990649;28;20042;-79
2022/01/27 08:25:32;;;;;;;3.88;2.00;;;;;;;3.10;48.13;99760.00;4958938;28;20066;-76
2022/01/27 08:28:01;;;;;;;3.70;2.10;;;;;;;3.14;48.90;99766.97;4994387;28;20044;-77
2022/01/27 08:30:34;;;;;;;3.85;2.42;;;;;;;3.04;49.21;99729.91;4979712;28;20070;-79
2022/01/27 08:33:05;;;;;;;5.95;3.40;;;;;;;2.90;48.35;99721.91;4978694;28;20140;-77
2022/01/27 08:35:35;;;;;;;3.60;2.30;;;;;;;3.11;49.24;99720.59;4994677;28;20568;-78
2022/01/27 08:38:04;;;;;;;3.88;1.75;;;;;;;4.21;49.14;99756.91;4962989;28;20046;-79
2022/01/27 08:40:36;;;;;;;4.50;2.05;;;;;;;5.59;47.62;99739.84;4978650;28;20500;-79
2022/01/27 08:43:05;;;;;;;3.33;2.03;;;;;;;5.91;47.50;99735.81;4995788;28;20050;-77
2022/01/27 08:45:39;;;;;;;2.95;2.05;;;;;;;5.11;45.71;99649.88;4979077;28;20077;-78
2022/01/27 08:48:18;;;;;;;3.60;2.00;;;;;;;5.32;45.24;99736.09;4996997;28;20038;-77
2022/01/27 08:50:57;;;;;;;4.15;2.03;;;;;;;5.56;44.18;99747.53;4994885;28;20046;-78
2022/01/27 08:53:30;;;;;;;2.72;1.95;;;;;;;5.38;44.33;99661.31;4995447;28;20042;-78
2022/01/27 08:55:59;;;;;;;4.45;1.80;;;;;;;4.95;43.68;99568.03;4980167;28;20034;-78
2022/01/27 08:58:25;;;;;;;3.85;1.88;;;;;;;5.00;42.96;99619.63;4998159;28;20049;-76
2022/01/27 09:00:56;;;;;;;2.25;1.70;;;;;;;4.33;43.01;99531.22;4979029;28;20034;-77
2022/01/27 09:03:25;;;;;;;3.17;2.13;;;;;;;4.09;43.75;99527.50;4980595;28;20502;-75
2022/01/27 09:05:51;;;;;;;3.45;1.73;;;;;;;5.03;42.64;99651.47;4995481;28;20050;-78
2022/01/27 09:08:17;;;;;;;2.10;1.50;;;;;;;4.78;42.37;99609.09;4994644;28;20049;-78
2022/01/27 09:10:45;;;;;;;3.03;1.67;;;;;;;6.10;42.84;99713.63;4994365;28;20562;-76
2022/01/27 09:13:18;;;;;;;2.40;1.50;;;;;;;5.66;41.72;99611.66;4994779;28;20046;-80
2022/01/27 09:16:13;;;;;;;3.50;1.70;;;;;;;5.38;41.31;99599.41;4981855;28;20420;-78
2022/01/27 09:18:39;;;;;;;1.95;1.55;;;;;;;5.18;41.39;99600.91;4994162;28;20042;-77
2022/01/27 09:21:42;;;;;;;3.38;1.55;;;;;;;5.16;41.25;99607.78;4977762;28;20034;-79
2022/01/27 09:24:15;;;;;;;5.07;1.73;;;;;;;5.52;40.80;99665.75;5014646;28;20046;-79
2022/01/27 09:29:34;;;;;;;;;;;;;;;5.76;39.86;99709.00;4966843;28;20042;-77
2022/01/27 09:32:05;;;;;;;2.88;1.50;;;;;;;5.10;40.53;99647.25;4961685;28;19929;-79
2022/01/27 09:34:32;;;;;;;3.45;1.98;;;;;;;4.47;40.33;99644.78;4976476;28;20133;-79
2022/01/27 09:37:02;;;;;;;4.53;2.35;;;;;;;4.31;41.04;99683.22;4975165;28;20046;-77
2022/01/27 09:39:37;;;;;;;3.03;1.70;;;;;;;3.77;40.07;99705.53;4959709;28;20042;-77
2022/01/27 09:42:07;;;;;;;2.65;1.70;;;;;;;3.13;41.18;99699.22;4959074;28;20040;-75
2022/01/27 09:44:34;;;;;;;3.35;1.90;;;;;;;3.14;41.25;99710.38;4975764;28;20473;-77
2022/01/27 09:47:09;;;;;;;3.92;1.90;;;;;;;4.30;42.02;99653.16;4974313;28;20038;-77
2022/01/27 09:49:40;;;;;;;2.55;1.80;;;;;;;5.51;41.98;99654.56;4975333;28;20066;-79
2022/01/27 09:52:06;;;;;;;3.80;2.00;;;;;;;6.72;40.87;99654.56;4957363;28;20097;-77
2022/01/27 09:54:37;;;;;;;3.20;1.90;;;;;;;6.46;39.73;99696.66;4973271;28;20089;-77
2022/01/27 09:57:11;;;;;;;4.15;1.90;;;;;;;5.05;39.06;99611.09;4941552;28;20042;-75
2022/01/27 09:59:45;;;;;;;4.65;1.80;;;;;;;4.17;39.90;99528.47;4972961;28;20039;-77
2022/01/27 10:02:15;;;;;;;3.20;1.70;;;;;;;3.97;39.44;99576.25;4943154;28;20142;-78
2022/01/27 10:04:47;;;;;;;3.88;2.03;;;;;;;4.74;38.88;99705.28;4955407;28;20031;-77
2022/01/27 10:07:20;;;;;;;3.05;1.80;;;;;;;4.07;39.29;99681.16;4967127;28;20042;-79
2022/01/27 10:10:12;;;;;;;2.90;1.88;;;;;;;3.88;40.16;99716.88;4973880;28;20050;-77
2022/01/27 10:12:50;;;;;;;4.47;2.28;;;;;;;3.43;40.18;99651.78;4989318;28;20054;-76
2022/01/27 10:15:20;;;;;;;4.45;2.50;;;;;;;3.63;39.96;99592.06;4973221;28;20085;-78
2022/01/27 10:18:04;;;;;;;3.28;2.15;;;;;;;4.82;40.02;99708.84;4974876;28;20043;-77
2022/01/27 10:20:30;;;;;;;4.53;2.17;;;;;;;4.76;39.01;99688.97;4974603;28;20576;-77
2022/01/27 10:23:22;;;;;;;3.85;1.98;;;;;;;4.29;39.09;99699.50;4973488;28;20042;-78
2022/01/27 10:25:56;;;;;;;4.30;2.00;;;;;;;3.64;39.32;99691.59;4978290;28;20054;-77
2022/01/27 10:31:20;;;;;;;3.03;1.90;;;;;;;2.82;40.10;99682.31;4992873;28;20046;-79
2022/01/27 10:34:47;;;;;;;3.55;1.60;;;;;;;1.95;39.48;99582.84;4992995;28;20046;-79
2022/01/27 10:37:13;;;;;;;1.90;1.30;;;;;;;2.24;40.07;99687.91;4956214;28;20046;-77
2022/01/27 10:39:45;;;;;;;2.55;1.60;;;;;;;1.92;40.74;99700.84;4991616;28;20120;-78
2022/01/27 10:42:14;;;;;;;2.30;1.48;;;;;;;1.67;41.48;99681.41;4976204;28;20569;-77
2022/01/27 10:44:45;;;;;;;3.10;2.10;;;;;;;1.77;41.00;99711.59;4992682;28;20053;-77
2022/01/27 10:47:23;;;;;;;3.97;2.20;;;;;;;1.25;41.38;99634.16;4977664;28;20041;-77
2022/01/27 10:50:02;;;;;;;2.45;1.75;;;;;;;1.39;41.48;99683.25;5008457;28;20048;-78
2022/01/27 10:52:44;;;;;;;3.40;1.80;;;;;;;1.10;42.13;99671.41;4994384;28;20080;-80
2022/01/27 10:55:23;;;;;;;2.80;1.75;;;;;;;0.90;41.92;99687.09;4992054;28;20129;-76
2022/01/27 10:57:50;;;;;;;2.65;1.80;;;;;;;0.55;41.85;99694.59;4959617;28;20041;-76
2022/01/27 11:00:22;;;;;;;2.47;1.80;;;;;;;0.29;42.97;99684.47;4974589;28;20517;-76
2022/01/27 11:02:48;;;;;;;2.88;1.92;;;;;;;0.02;43.65;99679.31;4991929;28;20046;-77
2022/01/27 11:05:22;;;;;;;3.25;2.03;;;;;;;-0.18;43.73;99648.00;4991850;28;20462;-77
2022/01/27 11:07:50;;;;;;;3.00;1.48;;;;;;;-0.01;43.69;99679.25;4990658;28;20506;-77
2022/01/27 11:10:18;;;;;;;3.58;1.40;;;;;;;-0.14;43.22;99682.22;4991757;28;20072;-78
2022/01/27 11:12:45;;;;;;;3.35;1.73;;;;;;;-0.36;44.41;99656.81;4974695;28;20070;-77
2022/01/27 11:15:17;;;;;;;3.05;1.60;;;;;;;-0.52;43.63;99652.00;4991306;28;20624;-79
2022/01/27 11:17:46;;;;;;;2.13;1.30;;;;;;;-0.61;43.89;99686.69;4992631;28;20133;-76
2022/01/27 11:23:10;;;;;;;3.10;1.65;;;;;;;-1.06;44.97;99654.44;4975733;28;20045;-78
2022/01/27 11:28:09;;;;;;;3.42;1.30;;;;;;;-1.43;44.47;99647.13;4990953;28;20046;-79
2022/01/27 11:31:08;;;;;;;3.17;1.45;;;;;;;-1.42;45.16;99667.63;4976351;28;20187;-77
2022/01/27 11:33:38;;;;;;;3.92;1.70;;;;;;;-1.62;45.42;99645.59;4962532;28;20038;-80
2022/01/27 11:36:09;;;;;;;2.08;1.65;;;;;;;-2.45;45.72;99504.75;4992212;28;20116;-78
2022/01/27 11:38:42;;;;;;;2.25;1.38;;;;;;;-2.39;45.68;99523.66;5009342;28;20115;-79
2022/01/27 11:41:38;;;;;;;3.78;1.60;;;;;;;-1.66;45.59;99616.53;4975442;28;20492;-79
2022/01/27 11:44:42;;;;;;;2.80;1.45;;;;;;;-1.47;45.88;99655.50;4991426;28;20049;-79
2022/01/27 11:47:13;;;;;;;4.05;1.60;;;;;;;-1.63;46.24;99656.59;4955520;28;20088;-78
2022/01/27 11:52:54;;;;;;;3.97;1.85;;;;;;;-1.94;46.64;99607.81;4992136;28;20141;-79
2022/01/27 11:55:23;;;;;;;8.35;3.10;;;;;;;-1.62;46.67;99653.25;5007671;28;20045;-77
2022/01/27 11:57:51;;;;;;;3.40;1.95;;;;;;;-1.66;46.70;99652.25;4991159;28;20623;-78
2022/01/27 12:00:22;;;;;;;4.25;3.00;;;;;;;-1.90;46.96;99606.25;4978514;28;20038;-75
2022/01/27 12:03:04;;;;;;;2.85;1.83;;;;;;;-1.67;46.79;99651.38;4992320;28;20045;-77
2022/01/27 12:05:39;;;;;;;3.70;2.55;;;;;;;-1.97;46.88;99602.59;4996160;28;20073;-75
2022/01/27 12:08:18;;;;;;;3.88;1.80;;;;;;;-1.77;46.84;99641.66;4995793;28;20785;-78
2022/01/27 12:10:53;;;;;;;2.42;1.73;;;;;;;-1.77;47.59;99641.66;4994013;28;20057;-77
2022/01/27 12:13:30;;;;;;;2.85;1.60;;;;;;;-1.89;46.69;99638.59;4977342;28;20107;-78
2022/01/27 12:16:24;;;;;;;4.63;1.70;;;;;;;-1.93;47.57;99634.19;4995763;28;20066;-79
2022/01/27 12:19:08;;;;;;;4.18;1.73;;;;;;;-2.06;47.16;99626.06;4996267;28;20061;-80
2022/01/27 12:21:56;;;;;;;2.63;1.55;;;;;;;-2.09;47.69;99637.81;4995218;28;20128;-79
2022/01/27 12:24:58;;;;;;;3.03;1.83;;;;;;;-2.36;47.79;99601.09;4994577;28;20046;-78
2022/01/27 12:27:30;;;;;;;2.65;1.90;;;;;;;-2.12;47.66;99641.13;4978660;28;20545;-79
2022/01/27 12:30:06;;;;;;;2.67;1.55;;;;;;;-2.89;48.38;99549.72;4963082;28;20049;-77
2022/01/27 12:32:38;;;;;;;2.40;1.60;;;;;;;-2.42;48.65;99632.31;4961991;28;20085;-78
2022/01/27 12:35:12;;;;;;;3.72;1.67;;;;;;;-2.20;49.01;99628.06;4977449;28;20429;-77
2022/01/27 12:37:50;;;;;;;4.68;2.17;;;;;;;-2.20;48.76;99633.19;4963790;28;20528;-77
2022/01/27 12:40:25;;;;;;;3.33;1.70;;;;;;;-2.23;48.91;99634.75;4995022;28;20046;-77
2022/01/27 12:43:11;;;;;;;4.03;1.70;;;;;;;-2.77;48.99;99560.41;4979480;28;20581;-77
2022/01/27 12:45:38;;;;;;;3.65;1.83;;;;;;;-2.29;49.37;99631.13;4979766;28;20046;-77
2022/01/27 12:48:12;;;;;;;5.30;1.98;;;;;;;-2.46;49.52;99601.56;4994238;28;20046;-80